createdAt,value
2022-11-27T00:00:20.915Z,100714.81
2022-11-27T00:02:53.732Z,100708.97
2022-11-27T00:05:27.146Z,100716.13
2022-11-27T00:08:00.442Z,100714.50
2022-11-27T00:10:33.677Z,100705.41
2022-11-27T00:13:07.219Z,100707.38
2022-11-27T00:15:40.787Z,100710.06
2022-11-27T00:18:14.279Z,100718.14
2022-11-27T00:20:47.811Z,100719.91
2022-11-27T00:23:21.159Z,100717.53
2022-11-27T00:25:54.758Z,100716.13
2022-11-27T00:28:28.193Z,100715.59
2022-11-27T00:31:02.625Z,100719.37
2022-11-27T00:33:37.643Z,100715.30
2022-11-27T00:36:13.234Z,100715.86
2022-11-27T00:38:46.604Z,100714.06
2022-11-27T00:41:22.874Z,100715.86
2022-11-27T00:43:57.029Z,100720.22
2022-11-27T00:46:33.083Z,100723.78
2022-11-27T00:49:07.820Z,100721.09
2022-11-27T00:51:41.638Z,100720.96
2022-11-27T00:54:15.253Z,100715.59
2022-11-27T00:56:48.557Z,100714.81
2022-11-27T00:59:21.911Z,100713.72
2022-11-27T01:01:55.203Z,100713.28
2022-11-27T01:04:28.600Z,100715.39
2022-11-27T01:07:02.128Z,100717.05
2022-11-27T01:09:35.482Z,100711.66
2022-11-27T01:12:10.041Z,100715.86
2022-11-27T01:14:43.364Z,100707.95
2022-11-27T01:17:16.793Z,100717.84
2022-11-27T01:19:50.293Z,100714.68
2022-11-27T01:22:24.056Z,100714.81
2022-11-27T01:24:57.188Z,100714.81
2022-11-27T01:27:30.614Z,100714.81
2022-11-27T01:30:04.221Z,100713.19
2022-11-27T01:32:37.868Z,100705.41
2022-11-27T01:35:12.548Z,100715.73
2022-11-27T01:37:45.733Z,100710.91
2022-11-27T01:40:19.341Z,100720.48
2022-11-27T01:42:52.656Z,100715.66
2022-11-27T01:45:26.814Z,100716.58
2022-11-27T01:48:03.048Z,100714.30
2022-11-27T01:50:39.147Z,100717.41
2022-11-27T01:53:15.880Z,100720.23
2022-11-27T01:55:51.949Z,100711.97
2022-11-27T01:58:28.344Z,100720.39
2022-11-27T02:01:02.140Z,100711.70
2022-11-27T02:03:35.820Z,100713.98
2022-11-27T02:06:12.907Z,100717.55
2022-11-27T02:08:46.655Z,100720.39
2022-11-27T02:11:22.888Z,100720.66
2022-11-27T02:13:59.182Z,100723.00
2022-11-27T02:16:35.337Z,100718.20
2022-11-27T02:19:11.319Z,100714.06
2022-11-27T02:21:48.602Z,100717.41
2022-11-27T02:28:19.205Z,100718.52
2022-11-27T02:30:55.974Z,100719.96
2022-11-27T02:33:30.878Z,100725.94
2022-11-27T02:36:07.457Z,100721.28
2022-11-27T02:38:44.049Z,100721.41
2022-11-27T02:41:20.533Z,100726.64
2022-11-27T02:43:56.862Z,100726.33
2022-11-27T02:46:30.829Z,100728.27
2022-11-27T02:49:08.201Z,100729.14
2022-11-27T02:51:45.169Z,100729.89
2022-11-27T02:54:21.671Z,100738.59
2022-11-27T02:56:57.958Z,100727.64
2022-11-27T02:59:33.354Z,100726.59
2022-11-27T03:02:09.784Z,100738.72
2022-11-27T03:04:46.320Z,100735.83
2022-11-27T03:07:23.313Z,100743.77
2022-11-27T03:09:59.511Z,100740.17
2022-11-27T03:12:34.522Z,100742.72
2022-11-27T03:15:10.370Z,100737.63
2022-11-27T03:17:52.928Z,100745.00
2022-11-27T03:20:30.153Z,100738.86
2022-11-27T03:23:03.688Z,100744.88
2022-11-27T03:25:37.151Z,100744.25
2022-11-27T03:28:12.458Z,100744.52
2022-11-27T03:30:45.781Z,100746.02
2022-11-27T03:33:19.853Z,100745.27
2022-11-27T03:35:54.327Z,100747.20
2022-11-27T03:38:27.671Z,100737.57
2022-11-27T03:41:04.003Z,100736.20
2022-11-27T03:43:40.242Z,100738.75
2022-11-27T03:46:16.649Z,100738.45
2022-11-27T03:48:52.752Z,100742.05
2022-11-27T03:51:28.946Z,100735.45
2022-11-27T03:54:05.087Z,100740.95
2022-11-27T03:56:42.165Z,100739.77
2022-11-27T03:59:19.990Z,100735.72
2022-11-27T04:01:53.638Z,100742.00
2022-11-27T04:04:27.189Z,100738.13
2022-11-27T04:07:00.556Z,100737.08
2022-11-27T04:09:33.836Z,100737.08
2022-11-27T04:12:08.027Z,100734.53
2022-11-27T04:14:41.639Z,100722.14
2022-11-27T04:17:15.225Z,100734.05
2022-11-27T04:19:48.792Z,100738.53
2022-11-27T04:22:22.178Z,100741.83
2022-11-27T04:24:56.043Z,100747.98
2022-11-27T04:27:29.288Z,100739.70
2022-11-27T04:30:02.768Z,100738.04
2022-11-27T04:32:36.306Z,100746.17
2022-11-27T04:35:11.106Z,100744.55
2022-11-27T04:37:44.467Z,100749.16
2022-11-27T04:40:18.524Z,100743.70
2022-11-27T04:42:51.957Z,100742.69
2022-11-27T04:45:25.123Z,100745.37
2022-11-27T04:47:58.440Z,100744.45
2022-11-27T04:50:32.197Z,100747.30
2022-11-27T04:53:05.573Z,100755.22
2022-11-27T04:55:39.176Z,100757.44
2022-11-27T04:58:12.571Z,100752.05
2022-11-27T05:00:46.069Z,100746.05
2022-11-27T05:03:19.806Z,100751.42
2022-11-27T05:05:58.591Z,100752.95
2022-11-27T05:08:33.884Z,100747.23
2022-11-27T05:11:08.887Z,100739.09
2022-11-27T05:13:42.512Z,100739.48
2022-11-27T05:16:15.713Z,100744.09
2022-11-27T05:18:49.375Z,100747.43
2022-11-27T05:21:22.982Z,100735.42
2022-11-27T05:23:56.300Z,100741.54
2022-11-27T05:26:29.729Z,100742.72
2022-11-27T05:29:03.593Z,100743.14
2022-11-27T05:31:38.007Z,100747.33
2022-11-27T05:34:12.262Z,100747.33
2022-11-27T05:36:46.069Z,100745.39
2022-11-27T05:39:19.795Z,100754.85
2022-11-27T05:41:53.266Z,100759.75
2022-11-27T05:44:28.339Z,100757.75
2022-11-27T05:47:01.949Z,100754.70
2022-11-27T05:49:35.393Z,100760.70
2022-11-27T05:52:08.622Z,100766.30
2022-11-27T05:54:42.505Z,100764.37
2022-11-27T05:57:15.950Z,100766.42
2022-11-27T05:59:49.361Z,100767.59
2022-11-27T06:02:27.970Z,100773.09
2022-11-27T06:04:58.027Z,100774.39
2022-11-27T06:07:32.196Z,100774.81
2022-11-27T06:10:05.968Z,100763.73
2022-11-27T06:12:39.477Z,100768.50
2022-11-27T06:15:13.357Z,100774.77
2022-11-27T06:17:47.124Z,100769.03
2022-11-27T06:20:21.419Z,100765.48
2022-11-27T06:22:54.768Z,100761.78
2022-11-27T06:25:28.515Z,100768.28
2022-11-27T06:28:01.927Z,100769.20
2022-11-27T06:30:35.199Z,100769.70
2022-11-27T06:33:08.448Z,100772.67
2022-11-27T06:35:41.711Z,100763.86
2022-11-27T06:38:14.998Z,100769.92
2022-11-27T06:40:48.427Z,100764.55
2022-11-27T06:43:22.123Z,100768.49
2022-11-27T06:45:59.895Z,100767.98
2022-11-27T06:48:32.090Z,100769.02
2022-11-27T06:51:06.055Z,100778.86
2022-11-27T06:53:40.583Z,100785.42
2022-11-27T06:56:15.379Z,100790.27
2022-11-27T06:58:50.458Z,100784.80
2022-11-27T07:01:24.936Z,100784.65
2022-11-27T07:03:59.395Z,100780.30
2022-11-27T07:06:32.674Z,100792.33
2022-11-27T07:09:07.748Z,100778.90
2022-11-27T07:11:41.774Z,100782.85
2022-11-27T07:14:15.660Z,100781.85
2022-11-27T07:16:49.362Z,100783.13
2022-11-27T07:19:22.588Z,100788.48
2022-11-27T07:21:56.155Z,100784.41
2022-11-27T07:24:29.607Z,100778.36
2022-11-27T07:27:03.224Z,100781.31
2022-11-27T07:29:36.920Z,100778.11
2022-11-27T07:32:10.409Z,100780.02
2022-11-27T07:34:44.023Z,100772.45
2022-11-27T07:37:17.565Z,100775.66
2022-11-27T07:40:05.502Z,100772.19
2022-11-27T07:42:41.671Z,100772.19
2022-11-27T07:45:01.651Z,100780.26
2022-11-27T07:47:35.026Z,100776.41
2022-11-27T07:50:11.279Z,100771.41
2022-11-27T07:52:44.989Z,100778.18
2022-11-27T07:55:18.478Z,100775.09
2022-11-27T07:57:52.440Z,100773.53
2022-11-27T08:00:26.546Z,100772.23
2022-11-27T08:03:01.036Z,100763.52
2022-11-27T08:05:36.460Z,100778.12
2022-11-27T08:08:09.868Z,100773.38
2022-11-27T08:10:43.771Z,100772.50
2022-11-27T08:13:17.000Z,100770.94
2022-11-27T08:15:50.309Z,100766.23
2022-11-27T08:18:23.625Z,100773.64
2022-11-27T08:20:56.921Z,100763.21
2022-11-27T08:23:30.443Z,100765.39
2022-11-27T08:26:07.549Z,100766.80
2022-11-27T08:28:41.937Z,100756.78
2022-11-27T08:31:16.329Z,100759.95
2022-11-27T08:33:50.200Z,100756.63
2022-11-27T08:36:26.695Z,100757.05
2022-11-27T08:39:00.200Z,100750.66
2022-11-27T08:41:33.480Z,100767.03
2022-11-27T08:44:09.357Z,100770.62
2022-11-27T08:46:41.754Z,100769.55
2022-11-27T08:49:15.310Z,100764.69
2022-11-27T08:51:48.859Z,100764.04
2022-11-27T08:54:22.518Z,100762.73
2022-11-27T08:56:55.700Z,100769.45
2022-11-27T08:59:29.092Z,100765.36
2022-11-27T09:02:02.787Z,100761.48
2022-11-27T09:04:36.199Z,100764.87
2022-11-27T09:07:11.121Z,100757.88
2022-11-27T09:09:44.864Z,100758.65
2022-11-27T09:12:18.011Z,100752.53
2022-11-27T09:14:51.354Z,100753.12
2022-11-27T09:17:24.657Z,100757.16
2022-11-27T09:19:58.230Z,100753.48
2022-11-27T09:22:31.917Z,100757.19
2022-11-27T09:25:05.904Z,100752.16
2022-11-27T09:27:40.007Z,100754.33
2022-11-27T09:30:15.955Z,100752.34
2022-11-27T09:32:49.536Z,100752.36
2022-11-27T09:35:23.134Z,100748.00
2022-11-27T09:37:56.588Z,100755.70
2022-11-27T09:40:29.895Z,100755.03
2022-11-27T09:43:06.447Z,100751.70
2022-11-27T09:45:45.261Z,100755.59
2022-11-27T09:48:21.528Z,100768.17
2022-11-27T09:50:57.721Z,100757.91
2022-11-27T09:53:34.037Z,100759.14
2022-11-27T09:56:10.239Z,100762.27
2022-11-27T09:58:46.714Z,100761.50
2022-11-27T10:01:25.150Z,100762.37
2022-11-27T10:03:57.558Z,100763.51
2022-11-27T10:06:33.798Z,100760.63
2022-11-27T10:09:14.601Z,100763.77
2022-11-27T10:11:51.809Z,100766.11
2022-11-27T10:14:32.969Z,100767.23
2022-11-27T10:17:09.589Z,100759.22
2022-11-27T10:19:47.349Z,100760.19
2022-11-27T10:22:24.616Z,100765.40
2022-11-27T10:25:04.152Z,100762.86
2022-11-27T10:27:39.700Z,100764.90
2022-11-27T10:30:18.014Z,100767.80
2022-11-27T10:32:55.482Z,100772.17
2022-11-27T10:35:31.831Z,100760.20
2022-11-27T10:38:08.076Z,100765.02
2022-11-27T10:40:44.388Z,100765.23
2022-11-27T10:43:20.333Z,100767.34
2022-11-27T10:45:55.842Z,100769.59
2022-11-27T10:48:29.864Z,100759.53
2022-11-27T10:51:03.387Z,100748.15
2022-11-27T10:53:38.556Z,100765.13
2022-11-27T10:56:51.601Z,100757.30
2022-11-27T10:59:33.025Z,100761.77
2022-11-27T11:02:05.094Z,100768.80
2022-11-27T11:04:48.449Z,100764.00
2022-11-27T11:07:27.002Z,100753.72
2022-11-27T11:10:01.503Z,100759.09
2022-11-27T11:12:34.749Z,100769.16
2022-11-27T11:15:15.492Z,100765.47
2022-11-27T11:17:48.800Z,100774.30
2022-11-27T11:20:23.881Z,100768.47
2022-11-27T11:22:56.903Z,100777.87
2022-11-27T11:25:30.670Z,100767.24
2022-11-27T11:28:04.389Z,100773.95
2022-11-27T11:30:39.710Z,100770.67
2022-11-27T11:33:15.475Z,100775.48
2022-11-27T11:35:54.003Z,100774.25
2022-11-27T11:38:32.546Z,100776.02
2022-11-27T11:41:09.755Z,100771.08
2022-11-27T11:43:43.609Z,100772.14
2022-11-27T11:46:23.558Z,100757.30
2022-11-27T11:49:00.197Z,100778.81
2022-11-27T11:51:57.407Z,100772.55
2022-11-27T11:54:44.019Z,100773.86
2022-11-27T11:57:27.476Z,100767.14
2022-11-27T12:00:04.190Z,100773.70
2022-11-27T12:02:47.003Z,100780.91
2022-11-27T12:05:28.636Z,100783.64
2022-11-27T12:08:33.217Z,100786.98
2022-11-27T12:11:12.055Z,100787.62
2022-11-27T12:14:05.000Z,100789.97
2022-11-27T12:16:43.644Z,100793.83
2022-11-27T12:19:35.049Z,100789.13
2022-11-27T12:22:12.691Z,100788.64
2022-11-27T12:24:50.247Z,100787.15
2022-11-27T12:27:29.221Z,100785.09
2022-11-27T12:30:14.578Z,100793.04
2022-11-27T12:36:02.281Z,100786.69
2022-11-27T12:38:43.518Z,100798.52
2022-11-27T12:41:36.080Z,100806.27
2022-11-27T12:44:14.945Z,100798.20
2022-11-27T12:46:52.404Z,100796.17
2022-11-27T12:49:28.818Z,100804.12
2022-11-27T12:52:05.564Z,100805.92
2022-11-27T12:54:42.410Z,100813.72
2022-11-27T12:57:19.977Z,100811.45
2022-11-27T12:59:56.221Z,100818.10
2022-11-27T13:02:35.675Z,100814.27
2022-11-27T13:05:12.083Z,100822.24
2022-11-27T13:07:48.509Z,100819.55
2022-11-27T13:10:26.473Z,100816.87
2022-11-27T13:13:05.076Z,100813.80
2022-11-27T13:15:41.749Z,100817.15
2022-11-27T13:18:20.185Z,100814.59
2022-11-27T13:20:54.688Z,100819.44
2022-11-27T13:23:29.368Z,100815.35
2022-11-27T13:26:05.727Z,100819.95
2022-11-27T13:28:43.270Z,100822.64
2022-11-27T13:31:20.177Z,100812.92
2022-11-27T13:33:55.080Z,100811.13
2022-11-27T13:36:35.753Z,100821.23
2022-11-27T13:39:05.632Z,100819.47
2022-11-27T13:41:41.745Z,100827.52
2022-11-27T13:44:27.105Z,100826.23
2022-11-27T13:47:03.362Z,100819.84
2022-11-27T13:49:38.956Z,100822.80
2022-11-27T13:52:16.030Z,100821.00
2022-11-27T13:54:56.754Z,100824.31
2022-11-27T13:57:31.663Z,100816.77
2022-11-27T14:00:08.764Z,100821.36
2022-11-27T14:02:50.159Z,100819.59
2022-11-27T14:05:26.279Z,100821.11
2022-11-27T14:08:00.792Z,100822.91
2022-11-27T14:10:35.685Z,100827.27
2022-11-27T14:13:11.337Z,100819.95
2022-11-27T14:15:44.913Z,100821.63
2022-11-27T14:18:21.268Z,100825.86
2022-11-27T14:20:56.890Z,100820.75
2022-11-27T14:23:32.512Z,100823.16
2022-11-27T14:26:13.397Z,100824.83
2022-11-27T14:28:44.835Z,100830.70
2022-11-27T14:31:31.200Z,100836.45
2022-11-27T14:34:16.054Z,100834.02
2022-11-27T14:36:40.583Z,100841.70
2022-11-27T14:39:23.789Z,100838.14
2022-11-27T14:42:02.032Z,100834.03
2022-11-27T14:44:36.088Z,100839.42
2022-11-27T14:47:11.283Z,100840.43
2022-11-27T14:49:44.816Z,100838.63
2022-11-27T14:52:19.134Z,100834.19
2022-11-27T14:54:53.602Z,100830.71
2022-11-27T14:57:29.044Z,100827.27
2022-11-27T15:00:13.731Z,100825.47
2022-11-27T15:02:47.896Z,100825.34
2022-11-27T15:05:25.098Z,100823.43
2022-11-27T15:08:01.794Z,100814.08
2022-11-27T15:10:38.927Z,100820.99
2022-11-27T15:13:22.807Z,100824.06
2022-11-27T15:16:01.538Z,100820.75
2022-11-27T15:18:38.956Z,100816.39
2022-11-27T15:21:19.442Z,100815.48
2022-11-27T15:23:54.076Z,100816.27
2022-11-27T15:26:35.679Z,100814.08
2022-11-27T15:29:31.854Z,100818.44
2022-11-27T15:32:07.716Z,100815.88
2022-11-27T15:34:41.918Z,100817.67
2022-11-27T15:37:23.539Z,100814.20
2022-11-27T15:39:57.831Z,100810.00
2022-11-27T15:42:31.923Z,100825.34
2022-11-27T15:45:08.197Z,100824.31
2022-11-27T15:47:45.353Z,100823.55
2022-11-27T15:50:19.460Z,100827.38
2022-11-27T15:52:53.056Z,100824.83
2022-11-27T15:55:26.717Z,100819.47
2022-11-27T15:58:00.514Z,100822.66
2022-11-27T16:00:35.446Z,100818.55
2022-11-27T16:03:09.861Z,100825.34
2022-11-27T16:05:43.523Z,100827.77
2022-11-27T16:08:17.431Z,100834.53
2022-11-27T16:10:51.307Z,100834.29
2022-11-27T16:13:24.807Z,100841.05
2022-11-27T16:15:59.744Z,100839.28
2022-11-27T16:18:36.925Z,100845.28
2022-11-27T16:21:12.389Z,100835.05
2022-11-27T16:23:46.516Z,100844.75
2022-11-27T16:26:28.887Z,100848.73
2022-11-27T16:29:23.011Z,100835.79
2022-11-27T16:34:38.067Z,100841.05
2022-11-27T16:37:18.414Z,100842.70
2022-11-27T16:39:53.488Z,100825.95
2022-11-27T16:42:33.121Z,100849.86
2022-11-27T16:45:08.229Z,100845.67
2022-11-27T16:47:46.254Z,100850.14
2022-11-27T16:50:20.117Z,100845.03
2022-11-27T16:52:55.641Z,100848.22
2022-11-27T16:55:31.696Z,100848.73
2022-11-27T16:58:05.075Z,100849.37
2022-11-27T17:00:38.842Z,100856.76
2022-11-27T17:03:17.905Z,100850.63
2022-11-27T17:05:51.769Z,100845.87
2022-11-27T17:08:26.713Z,100851.27
2022-11-27T17:11:09.753Z,100850.45
2022-11-27T17:13:50.743Z,100844.45
2022-11-27T17:16:28.699Z,100849.03
2022-11-27T17:19:04.284Z,100857.96
2022-11-27T17:21:38.305Z,100855.69
2022-11-27T17:24:16.057Z,100857.74
2022-11-27T17:26:54.023Z,100866.42
2022-11-27T17:29:33.861Z,100858.53
2022-11-27T17:32:10.089Z,100854.42
2022-11-27T17:34:45.309Z,100854.77
2022-11-27T17:37:20.032Z,100855.05
2022-11-27T17:39:54.598Z,100855.72
2022-11-27T17:42:28.413Z,100858.53
2022-11-27T17:45:07.007Z,100850.86
2022-11-27T17:47:40.481Z,100851.36
2022-11-27T17:50:17.558Z,100865.53
2022-11-27T17:52:54.905Z,100853.92
2022-11-27T17:55:28.923Z,100860.05
2022-11-27T17:58:04.965Z,100859.41
2022-11-27T18:00:45.103Z,100855.97
2022-11-27T18:03:20.949Z,100857.36
2022-11-27T18:05:54.334Z,100861.81
2022-11-27T18:08:28.091Z,100863.03
2022-11-27T18:11:09.379Z,100859.13
2022-11-27T18:13:43.511Z,100859.92
2022-11-27T18:16:20.977Z,100855.70
2022-11-27T18:18:54.418Z,100853.22
2022-11-27T18:21:31.992Z,100850.15
2022-11-27T18:24:23.382Z,100862.42
2022-11-27T18:29:16.804Z,100866.93
2022-11-27T18:31:55.068Z,100852.36
2022-11-27T18:34:29.410Z,100864.73
2022-11-27T18:37:03.481Z,100853.97
2022-11-27T18:39:37.849Z,100853.55
2022-11-27T18:42:11.295Z,100852.23
2022-11-27T18:44:46.625Z,100848.38
2022-11-27T18:47:20.451Z,100863.98
2022-11-27T18:49:55.776Z,100857.34
2022-11-27T18:52:30.988Z,100855.97
2022-11-27T18:55:06.286Z,100864.61
2022-11-27T18:57:39.777Z,100868.53
2022-11-27T19:00:16.283Z,100874.95
2022-11-27T19:02:51.656Z,100872.95
2022-11-27T19:05:25.285Z,100869.42
2022-11-27T19:08:01.330Z,100877.37
2022-11-27T19:10:35.449Z,100867.16
2022-11-27T19:13:08.982Z,100875.02
2022-11-27T19:15:46.149Z,100869.48
2022-11-27T19:18:20.877Z,100867.42
2022-11-27T19:20:58.999Z,100872.39
2022-11-27T19:23:34.012Z,100865.23
2022-11-27T19:26:10.679Z,100877.99
2022-11-27T19:28:45.451Z,100875.70
2022-11-27T19:31:19.243Z,100876.63
2022-11-27T19:33:56.215Z,100873.84
2022-11-27T19:36:31.565Z,100872.47
2022-11-27T19:39:06.527Z,100878.88
2022-11-27T19:41:40.022Z,100864.61
2022-11-27T19:44:15.727Z,100872.27
2022-11-27T19:46:49.571Z,100872.20
2022-11-27T19:49:26.175Z,100867.84
2022-11-27T19:52:00.095Z,100862.12
2022-11-27T19:54:35.808Z,100865.42
2022-11-27T19:57:09.501Z,100875.15
2022-11-27T19:59:43.893Z,100883.43
2022-11-27T20:02:17.979Z,100873.22
2022-11-27T20:04:54.971Z,100877.14
2022-11-27T20:07:28.520Z,100887.16
2022-11-27T20:10:02.108Z,100882.31
2022-11-27T20:12:38.437Z,100874.53
2022-11-27T20:15:16.391Z,100893.64
2022-11-27T20:17:49.928Z,100890.60
2022-11-27T20:20:23.646Z,100894.95
2022-11-27T20:22:58.062Z,100885.50
2022-11-27T20:25:31.406Z,100891.78
2022-11-27T20:28:05.258Z,100903.38
2022-11-27T20:30:40.895Z,100900.98
2022-11-27T20:33:16.265Z,100898.56
2022-11-27T20:35:49.753Z,100900.81
2022-11-27T20:38:23.756Z,100896.27
2022-11-27T20:40:57.591Z,100891.22
2022-11-27T20:43:31.133Z,100911.33
2022-11-27T20:46:04.951Z,100909.03
2022-11-27T20:48:38.818Z,100907.92
2022-11-27T20:51:14.481Z,100908.55
2022-11-27T20:53:49.731Z,100912.91
2022-11-27T20:56:23.786Z,100908.84
2022-11-27T20:58:57.929Z,100905.50
2022-11-27T21:01:33.700Z,100910.41
2022-11-27T21:04:10.034Z,100908.77
2022-11-27T21:06:44.406Z,100911.33
2022-11-27T21:09:19.779Z,100905.17
2022-11-27T21:11:54.201Z,100908.64
2022-11-27T21:14:27.944Z,100910.28
2022-11-27T21:17:05.109Z,100891.42
2022-11-27T21:19:38.731Z,100886.61
2022-11-27T21:22:12.424Z,100911.20
2022-11-27T21:24:46.174Z,100901.73
2022-11-27T21:27:19.735Z,100895.77
2022-11-27T21:29:54.434Z,100906.34
2022-11-27T21:32:29.057Z,100893.64
2022-11-27T21:35:03.138Z,100895.71
2022-11-27T21:37:36.368Z,100908.97
2022-11-27T21:40:12.668Z,100902.22
2022-11-27T21:42:46.136Z,100911.20
2022-11-27T21:45:19.854Z,100918.56
2022-11-27T21:47:53.314Z,100912.83
2022-11-27T21:50:26.575Z,100906.97
2022-11-27T21:53:00.634Z,100920.30
2022-11-27T21:55:33.959Z,100911.59
2022-11-27T21:58:07.482Z,100914.28
2022-11-27T22:00:40.978Z,100913.03
2022-11-27T22:03:14.564Z,100905.86
2022-11-27T22:05:48.062Z,100910.97
2022-11-27T22:08:21.603Z,100925.41
2022-11-27T22:10:55.343Z,100911.53
2022-11-27T22:13:30.062Z,100902.48
2022-11-27T22:16:04.264Z,100914.97
2022-11-27T22:18:37.982Z,100908.34
2022-11-27T22:21:12.683Z,100916.27
2022-11-27T22:23:46.890Z,100913.72
2022-11-27T22:26:22.058Z,100920.37
2022-11-27T22:28:57.318Z,100922.30
2022-11-27T22:31:33.577Z,100919.38
2022-11-27T22:34:07.003Z,100912.97
2022-11-27T22:36:40.609Z,100915.72
2022-11-27T22:39:14.029Z,100912.41
2022-11-27T22:41:47.830Z,100928.48
2022-11-27T22:44:23.087Z,100932.35
2022-11-27T22:46:56.562Z,100923.74
2022-11-27T22:49:29.976Z,100916.47
2022-11-27T22:52:03.579Z,100925.05
2022-11-27T22:54:37.272Z,100933.05
2022-11-27T22:57:10.620Z,100925.80
2022-11-27T22:59:43.989Z,100918.89
2022-11-27T23:02:18.489Z,100925.54
2022-11-27T23:04:51.946Z,100933.73
2022-11-27T23:07:25.600Z,100929.66
2022-11-27T23:09:58.945Z,100926.48
2022-11-27T23:12:34.187Z,100926.23
2022-11-27T23:15:09.224Z,100929.41
2022-11-27T23:17:42.568Z,100939.95
2022-11-27T23:20:16.576Z,100930.42
2022-11-27T23:22:50.134Z,100936.94
2022-11-27T23:25:23.641Z,100930.03
2022-11-27T23:27:57.003Z,100935.00
2022-11-27T23:30:30.122Z,100941.62
2022-11-27T23:33:03.902Z,100941.87
2022-11-27T23:35:37.508Z,100942.17
2022-11-27T23:38:11.030Z,100943.06
2022-11-27T23:40:44.527Z,100941.95
2022-11-27T23:43:17.889Z,100957.69
2022-11-27T23:45:51.316Z,100952.45
2022-11-27T23:48:24.672Z,100962.18
2022-11-27T23:50:58.031Z,100968.95
2022-11-27T23:53:31.767Z,100951.47
2022-11-27T23:56:05.810Z,100946.37
2022-11-27T23:58:45.194Z,100954.95
